sensor_id;sensor_type;location;lat;lon;timestamp;P1;durP1;ratioP1;P2;durP2;ratioP2
49015;SDS011;34830;44.064;12.566;2022-12-05T00:03:48;33.60;;;22.50;;
49015;SDS011;34830;44.064;12.566;2022-12-05T00:06:15;30.83;;;21.90;;
49015;SDS011;34830;44.064;12.566;2022-12-05T00:08:42;29.83;;;21.00;;
49015;SDS011;34830;44.064;12.566;2022-12-05T00:11:13;34.70;;;22.38;;
49015;SDS011;34830;44.064;12.566;2022-12-05T00:13:41;34.80;;;22.63;;
49015;SDS011;34830;44.064;12.566;2022-12-05T00:16:08;31.75;;;21.52;;
49015;SDS011;34830;44.064;12.566;2022-12-05T00:18:35;38.53;;;22.05;;
49015;SDS011;34830;44.064;12.566;2022-12-05T00:21:01;30.65;;;20.75;;
49015;SDS011;34830;44.064;12.566;2022-12-05T00:23:28;33.30;;;22.55;;
49015;SDS011;34830;44.064;12.566;2022-12-05T00:25:54;31.15;;;21.58;;
49015;SDS011;34830;44.064;12.566;2022-12-05T00:28:20;31.40;;;21.95;;
49015;SDS011;34830;44.064;12.566;2022-12-05T00:30:46;29.80;;;20.73;;
49015;SDS011;34830;44.064;12.566;2022-12-05T00:33:12;29.75;;;20.52;;
49015;SDS011;34830;44.064;12.566;2022-12-05T00:35:39;30.80;;;21.08;;
49015;SDS011;34830;44.064;12.566;2022-12-05T00:38:05;30.55;;;21.08;;
49015;SDS011;34830;44.064;12.566;2022-12-05T00:40:33;35.65;;;21.00;;
49015;SDS011;34830;44.064;12.566;2022-12-05T00:43:00;32.55;;;22.08;;
49015;SDS011;34830;44.064;12.566;2022-12-05T00:45:26;33.70;;;22.17;;
49015;SDS011;34830;44.064;12.566;2022-12-05T00:47:52;34.70;;;22.90;;
49015;SDS011;34830;44.064;12.566;2022-12-05T00:50:18;31.63;;;21.15;;
49015;SDS011;34830;44.064;12.566;2022-12-05T00:52:44;32.30;;;20.63;;
49015;SDS011;34830;44.064;12.566;2022-12-05T00:55:10;33.75;;;20.83;;
49015;SDS011;34830;44.064;12.566;2022-12-05T00:57:36;33.25;;;19.63;;
49015;SDS011;34830;44.064;12.566;2022-12-05T01:00:03;31.95;;;21.73;;
49015;SDS011;34830;44.064;12.566;2022-12-05T01:02:30;29.33;;;20.75;;
49015;SDS011;34830;44.064;12.566;2022-12-05T01:04:56;30.30;;;19.50;;
49015;SDS011;34830;44.064;12.566;2022-12-05T01:07:22;33.40;;;20.73;;
49015;SDS011;34830;44.064;12.566;2022-12-05T01:09:48;30.50;;;20.95;;
49015;SDS011;34830;44.064;12.566;2022-12-05T01:12:14;34.58;;;22.05;;
49015;SDS011;34830;44.064;12.566;2022-12-05T01:14:40;37.53;;;23.50;;
49015;SDS011;34830;44.064;12.566;2022-12-05T01:17:06;40.20;;;22.40;;
49015;SDS011;34830;44.064;12.566;2022-12-05T01:19:33;35.50;;;21.73;;
49015;SDS011;34830;44.064;12.566;2022-12-05T01:21:59;36.35;;;21.77;;
49015;SDS011;34830;44.064;12.566;2022-12-05T01:24:25;35.72;;;22.60;;
49015;SDS011;34830;44.064;12.566;2022-12-05T01:26:52;34.60;;;21.52;;
49015;SDS011;34830;44.064;12.566;2022-12-05T01:29:19;38.15;;;22.10;;
49015;SDS011;34830;44.064;12.566;2022-12-05T01:31:46;35.35;;;22.73;;
49015;SDS011;34830;44.064;12.566;2022-12-05T01:34:13;39.03;;;22.25;;
49015;SDS011;34830;44.064;12.566;2022-12-05T01:36:40;39.35;;;20.27;;
49015;SDS011;34830;44.064;12.566;2022-12-05T01:39:08;41.05;;;22.38;;
49015;SDS011;34830;44.064;12.566;2022-12-05T01:41:35;43.67;;;22.30;;
49015;SDS011;34830;44.064;12.566;2022-12-05T01:44:56;38.65;;;22.27;;
49015;SDS011;34830;44.064;12.566;2022-12-05T01:46:52;29.85;;;21.60;;
49015;SDS011;34830;44.064;12.566;2022-12-05T01:49:35;34.13;;;22.15;;
49015;SDS011;34830;44.064;12.566;2022-12-05T01:52:19;29.92;;;18.95;;
49015;SDS011;34830;44.064;12.566;2022-12-05T01:54:48;31.13;;;18.80;;
49015;SDS011;34830;44.064;12.566;2022-12-05T01:57:16;33.97;;;20.25;;
49015;SDS011;34830;44.064;12.566;2022-12-05T01:59:49;43.53;;;20.73;;
49015;SDS011;34830;44.064;12.566;2022-12-05T02:02:18;43.15;;;20.77;;
49015;SDS011;34830;44.064;12.566;2022-12-05T02:04:50;35.83;;;19.88;;
49015;SDS011;34830;44.064;12.566;2022-12-05T02:07:21;32.45;;;20.52;;
49015;SDS011;34830;44.064;12.566;2022-12-05T02:09:48;30.73;;;18.85;;
49015;SDS011;34830;44.064;12.566;2022-12-05T02:12:15;33.75;;;20.20;;
49015;SDS011;34830;44.064;12.566;2022-12-05T02:17:41;29.90;;;18.40;;
49015;SDS011;34830;44.064;12.566;2022-12-05T02:34:52;27.02;;;15.93;;
49015;SDS011;34830;44.064;12.566;2022-12-05T02:37:31;27.02;;;15.93;;
49015;SDS011;34830;44.064;12.566;2022-12-05T02:40:25;25.55;;;15.40;;
49015;SDS011;34830;44.064;12.566;2022-12-05T02:43:04;30.45;;;16.02;;
49015;SDS011;34830;44.064;12.566;2022-12-05T02:45:34;29.30;;;15.77;;
49015;SDS011;34830;44.064;12.566;2022-12-05T02:48:02;21.70;;;13.80;;
49015;SDS011;34830;44.064;12.566;2022-12-05T02:50:30;26.17;;;14.85;;
49015;SDS011;34830;44.064;12.566;2022-12-05T02:53:00;30.55;;;14.85;;
49015;SDS011;34830;44.064;12.566;2022-12-05T02:55:29;19.75;;;12.75;;
49015;SDS011;34830;44.064;12.566;2022-12-05T02:57:56;30.55;;;12.65;;
49015;SDS011;34830;44.064;12.566;2022-12-05T03:00:23;21.23;;;11.00;;
49015;SDS011;34830;44.064;12.566;2022-12-05T03:02:51;18.77;;;11.20;;
49015;SDS011;34830;44.064;12.566;2022-12-05T03:05:21;18.73;;;10.05;;
49015;SDS011;34830;44.064;12.566;2022-12-05T03:07:52;18.55;;;8.65;;
49015;SDS011;34830;44.064;12.566;2022-12-05T03:10:20;13.57;;;7.53;;
49015;SDS011;34830;44.064;12.566;2022-12-05T03:12:49;15.50;;;7.05;;
49015;SDS011;34830;44.064;12.566;2022-12-05T03:17:56;11.23;;;5.85;;
49015;SDS011;34830;44.064;12.566;2022-12-05T03:20:33;12.50;;;5.10;;
49015;SDS011;34830;44.064;12.566;2022-12-05T03:23:05;8.38;;;4.25;;
49015;SDS011;34830;44.064;12.566;2022-12-05T03:25:34;9.05;;;4.75;;
49015;SDS011;34830;44.064;12.566;2022-12-05T03:28:17;11.57;;;3.80;;
49015;SDS011;34830;44.064;12.566;2022-12-05T03:30:51;7.82;;;3.35;;
49015;SDS011;34830;44.064;12.566;2022-12-05T03:33:28;7.88;;;2.90;;
49015;SDS011;34830;44.064;12.566;2022-12-05T03:36:00;8.38;;;3.25;;
49015;SDS011;34830;44.064;12.566;2022-12-05T03:44:00;5.28;;;1.83;;
49015;SDS011;34830;44.064;12.566;2022-12-05T03:46:40;5.32;;;2.20;;
49015;SDS011;34830;44.064;12.566;2022-12-05T03:49:23;2.67;;;1.35;;
49015;SDS011;34830;44.064;12.566;2022-12-05T03:51:54;4.20;;;1.95;;
49015;SDS011;34830;44.064;12.566;2022-12-05T03:54:24;5.88;;;0.93;;
49015;SDS011;34830;44.064;12.566;2022-12-05T03:57:21;3.58;;;1.30;;
49015;SDS011;34830;44.064;12.566;2022-12-05T03:59:53;4.85;;;1.17;;
49015;SDS011;34830;44.064;12.566;2022-12-05T04:02:24;3.08;;;1.50;;
49015;SDS011;34830;44.064;12.566;2022-12-05T04:07:47;7.65;;;1.48;;
49015;SDS011;34830;44.064;12.566;2022-12-05T04:10:15;10.00;;;1.80;;
49015;SDS011;34830;44.064;12.566;2022-12-05T04:12:45;4.93;;;1.55;;
49015;SDS011;34830;44.064;12.566;2022-12-05T04:15:16;6.70;;;1.65;;
49015;SDS011;34830;44.064;12.566;2022-12-05T04:17:49;4.78;;;1.70;;
49015;SDS011;34830;44.064;12.566;2022-12-05T04:23:10;3.83;;;1.40;;
49015;SDS011;34830;44.064;12.566;2022-12-05T04:25:38;5.25;;;1.17;;
49015;SDS011;34830;44.064;12.566;2022-12-05T04:28:33;5.65;;;1.20;;
49015;SDS011;34830;44.064;12.566;2022-12-05T04:31:05;2.67;;;0.90;;
49015;SDS011;34830;44.064;12.566;2022-12-05T04:36:30;3.92;;;0.90;;
49015;SDS011;34830;44.064;12.566;2022-12-05T04:39:02;4.22;;;1.00;;
49015;SDS011;34830;44.064;12.566;2022-12-05T04:41:46;5.10;;;1.33;;
49015;SDS011;34830;44.064;12.566;2022-12-05T04:44:16;4.38;;;1.23;;
49015;SDS011;34830;44.064;12.566;2022-12-05T04:46:45;5.05;;;1.25;;
49015;SDS011;34830;44.064;12.566;2022-12-05T04:49:14;3.72;;;1.30;;
49015;SDS011;34830;44.064;12.566;2022-12-05T04:51:43;4.40;;;1.35;;
49015;SDS011;34830;44.064;12.566;2022-12-05T04:54:20;3.83;;;1.95;;
49015;SDS011;34830;44.064;12.566;2022-12-05T04:56:49;5.57;;;1.17;;
49015;SDS011;34830;44.064;12.566;2022-12-05T04:59:16;5.55;;;1.25;;
49015;SDS011;34830;44.064;12.566;2022-12-05T05:01:44;7.00;;;1.27;;
49015;SDS011;34830;44.064;12.566;2022-12-05T05:04:16;5.75;;;1.50;;
49015;SDS011;34830;44.064;12.566;2022-12-05T05:07:04;5.57;;;1.30;;
49015;SDS011;34830;44.064;12.566;2022-12-05T05:09:33;5.70;;;1.45;;
49015;SDS011;34830;44.064;12.566;2022-12-05T05:12:00;7.63;;;1.55;;
49015;SDS011;34830;44.064;12.566;2022-12-05T05:14:26;5.40;;;1.50;;
49015;SDS011;34830;44.064;12.566;2022-12-05T05:16:52;4.30;;;1.60;;
49015;SDS011;34830;44.064;12.566;2022-12-05T05:19:18;4.10;;;1.73;;
49015;SDS011;34830;44.064;12.566;2022-12-05T05:21:44;9.93;;;1.70;;
49015;SDS011;34830;44.064;12.566;2022-12-05T05:24:10;3.35;;;1.55;;
49015;SDS011;34830;44.064;12.566;2022-12-05T05:26:38;5.07;;;1.40;;
49015;SDS011;34830;44.064;12.566;2022-12-05T05:29:04;7.63;;;1.98;;
49015;SDS011;34830;44.064;12.566;2022-12-05T05:31:31;5.35;;;1.52;;
49015;SDS011;34830;44.064;12.566;2022-12-05T05:33:57;3.53;;;1.70;;
49015;SDS011;34830;44.064;12.566;2022-12-05T05:36:24;5.35;;;1.80;;
49015;SDS011;34830;44.064;12.566;2022-12-05T05:38:53;5.00;;;2.20;;
49015;SDS011;34830;44.064;12.566;2022-12-05T05:41:24;5.43;;;2.05;;
49015;SDS011;34830;44.064;12.566;2022-12-05T05:43:50;5.20;;;1.90;;
49015;SDS011;34830;44.064;12.566;2022-12-05T05:46:18;6.82;;;1.65;;
49015;SDS011;34830;44.064;12.566;2022-12-05T05:48:46;5.28;;;1.85;;
49015;SDS011;34830;44.064;12.566;2022-12-05T05:51:13;7.90;;;1.63;;
49015;SDS011;34830;44.064;12.566;2022-12-05T05:53:40;26.52;;;3.30;;
49015;SDS011;34830;44.064;12.566;2022-12-05T05:56:07;11.63;;;2.55;;
49015;SDS011;34830;44.064;12.566;2022-12-05T05:58:35;3.75;;;1.88;;
49015;SDS011;34830;44.064;12.566;2022-12-05T06:01:09;4.88;;;1.80;;
49015;SDS011;34830;44.064;12.566;2022-12-05T06:03:37;6.68;;;1.70;;
49015;SDS011;34830;44.064;12.566;2022-12-05T06:06:04;6.03;;;1.80;;
49015;SDS011;34830;44.064;12.566;2022-12-05T06:08:32;6.20;;;1.92;;
49015;SDS011;34830;44.064;12.566;2022-12-05T06:11:03;7.50;;;3.33;;
49015;SDS011;34830;44.064;12.566;2022-12-05T06:13:33;5.38;;;2.55;;
49015;SDS011;34830;44.064;12.566;2022-12-05T06:15:59;4.95;;;2.58;;
49015;SDS011;34830;44.064;12.566;2022-12-05T06:18:25;6.35;;;2.72;;
49015;SDS011;34830;44.064;12.566;2022-12-05T06:20:55;10.38;;;3.20;;
49015;SDS011;34830;44.064;12.566;2022-12-05T06:23:22;4.97;;;3.00;;
49015;SDS011;34830;44.064;12.566;2022-12-05T06:25:50;7.05;;;3.42;;
49015;SDS011;34830;44.064;12.566;2022-12-05T06:28:17;10.45;;;2.92;;
49015;SDS011;34830;44.064;12.566;2022-12-05T06:30:44;7.68;;;2.40;;
49015;SDS011;34830;44.064;12.566;2022-12-05T06:33:10;7.20;;;2.85;;
49015;SDS011;34830;44.064;12.566;2022-12-05T06:35:37;10.27;;;3.70;;
49015;SDS011;34830;44.064;12.566;2022-12-05T06:38:04;8.00;;;3.25;;
49015;SDS011;34830;44.064;12.566;2022-12-05T06:40:31;11.15;;;2.80;;
49015;SDS011;34830;44.064;12.566;2022-12-05T06:42:57;5.50;;;2.40;;
49015;SDS011;34830;44.064;12.566;2022-12-05T06:45:23;7.07;;;2.80;;
49015;SDS011;34830;44.064;12.566;2022-12-05T06:47:50;9.93;;;2.65;;
49015;SDS011;34830;44.064;12.566;2022-12-05T06:50:17;7.03;;;2.75;;
49015;SDS011;34830;44.064;12.566;2022-12-05T06:52:45;9.80;;;2.85;;
49015;SDS011;34830;44.064;12.566;2022-12-05T06:55:11;5.53;;;2.25;;
49015;SDS011;34830;44.064;12.566;2022-12-05T06:57:37;4.38;;;1.92;;
49015;SDS011;34830;44.064;12.566;2022-12-05T07:00:03;6.72;;;2.28;;
49015;SDS011;34830;44.064;12.566;2022-12-05T07:02:49;9.18;;;1.70;;
49015;SDS011;34830;44.064;12.566;2022-12-05T07:05:16;6.55;;;1.75;;
49015;SDS011;34830;44.064;12.566;2022-12-05T07:07:42;4.28;;;1.67;;
49015;SDS011;34830;44.064;12.566;2022-12-05T07:10:08;11.48;;;2.65;;
49015;SDS011;34830;44.064;12.566;2022-12-05T07:12:34;11.75;;;1.83;;
49015;SDS011;34830;44.064;12.566;2022-12-05T07:15:01;5.88;;;1.58;;
49015;SDS011;34830;44.064;12.566;2022-12-05T07:17:27;6.72;;;1.75;;
49015;SDS011;34830;44.064;12.566;2022-12-05T07:19:53;7.80;;;2.17;;
49015;SDS011;34830;44.064;12.566;2022-12-05T07:22:20;8.23;;;1.80;;
49015;SDS011;34830;44.064;12.566;2022-12-05T07:24:47;8.07;;;2.08;;
49015;SDS011;34830;44.064;12.566;2022-12-05T07:27:16;6.07;;;2.72;;
49015;SDS011;34830;44.064;12.566;2022-12-05T07:29:42;8.32;;;1.92;;
49015;SDS011;34830;44.064;12.566;2022-12-05T07:32:09;8.00;;;2.20;;
49015;SDS011;34830;44.064;12.566;2022-12-05T07:34:35;5.88;;;1.85;;
49015;SDS011;34830;44.064;12.566;2022-12-05T07:37:03;8.20;;;2.00;;
49015;SDS011;34830;44.064;12.566;2022-12-05T07:39:29;13.75;;;2.53;;
49015;SDS011;34830;44.064;12.566;2022-12-05T07:41:56;7.53;;;1.83;;
49015;SDS011;34830;44.064;12.566;2022-12-05T07:44:22;7.32;;;1.70;;
49015;SDS011;34830;44.064;12.566;2022-12-05T07:46:48;7.32;;;2.05;;
49015;SDS011;34830;44.064;12.566;2022-12-05T07:49:14;6.40;;;2.10;;
49015;SDS011;34830;44.064;12.566;2022-12-05T07:51:43;4.47;;;1.70;;
49015;SDS011;34830;44.064;12.566;2022-12-05T07:54:09;7.03;;;2.25;;
49015;SDS011;34830;44.064;12.566;2022-12-05T07:56:35;8.63;;;1.92;;
49015;SDS011;34830;44.064;12.566;2022-12-05T07:59:01;6.97;;;2.00;;
49015;SDS011;34830;44.064;12.566;2022-12-05T08:01:27;4.35;;;1.80;;
49015;SDS011;34830;44.064;12.566;2022-12-05T08:03:55;8.38;;;2.75;;
49015;SDS011;34830;44.064;12.566;2022-12-05T08:06:26;11.43;;;3.72;;
49015;SDS011;34830;44.064;12.566;2022-12-05T08:08:56;7.80;;;2.78;;
49015;SDS011;34830;44.064;12.566;2022-12-05T08:11:24;10.32;;;2.35;;
49015;SDS011;34830;44.064;12.566;2022-12-05T08:13:52;7.25;;;2.22;;
49015;SDS011;34830;44.064;12.566;2022-12-05T08:16:19;9.18;;;3.10;;
49015;SDS011;34830;44.064;12.566;2022-12-05T08:18:48;8.05;;;3.00;;
49015;SDS011;34830;44.064;12.566;2022-12-05T08:21:19;11.30;;;3.65;;
49015;SDS011;34830;44.064;12.566;2022-12-05T08:23:45;13.02;;;2.70;;
49015;SDS011;34830;44.064;12.566;2022-12-05T08:26:16;12.43;;;2.63;;
49015;SDS011;34830;44.064;12.566;2022-12-05T08:28:45;11.93;;;2.33;;
49015;SDS011;34830;44.064;12.566;2022-12-05T08:31:15;11.65;;;1.80;;
49015;SDS011;34830;44.064;12.566;2022-12-05T08:33:42;4.83;;;1.67;;
49015;SDS011;34830;44.064;12.566;2022-12-05T08:36:10;7.10;;;1.83;;
49015;SDS011;34830;44.064;12.566;2022-12-05T08:38:39;6.05;;;1.95;;
49015;SDS011;34830;44.064;12.566;2022-12-05T08:41:06;9.07;;;1.95;;
49015;SDS011;34830;44.064;12.566;2022-12-05T08:43:33;6.10;;;1.55;;
49015;SDS011;34830;44.064;12.566;2022-12-05T08:45:59;8.30;;;2.15;;
49015;SDS011;34830;44.064;12.566;2022-12-05T08:48:26;4.55;;;1.05;;
49015;SDS011;34830;44.064;12.566;2022-12-05T08:50:53;5.50;;;1.20;;
49015;SDS011;34830;44.064;12.566;2022-12-05T08:53:19;7.05;;;1.27;;
49015;SDS011;34830;44.064;12.566;2022-12-05T08:55:46;12.43;;;2.72;;
49015;SDS011;34830;44.064;12.566;2022-12-05T08:58:12;10.48;;;2.72;;
49015;SDS011;34830;44.064;12.566;2022-12-05T09:00:39;5.57;;;1.75;;
49015;SDS011;34830;44.064;12.566;2022-12-05T09:03:06;7.53;;;1.75;;
49015;SDS011;34830;44.064;12.566;2022-12-05T09:05:35;5.38;;;1.50;;
49015;SDS011;34830;44.064;12.566;2022-12-05T09:08:01;4.70;;;2.33;;
49015;SDS011;34830;44.064;12.566;2022-12-05T09:10:27;8.73;;;2.63;;
49015;SDS011;34830;44.064;12.566;2022-12-05T09:12:53;5.03;;;2.22;;
49015;SDS011;34830;44.064;12.566;2022-12-05T09:15:19;9.45;;;3.05;;
49015;SDS011;34830;44.064;12.566;2022-12-05T09:17:45;5.78;;;1.38;;
49015;SDS011;34830;44.064;12.566;2022-12-05T09:20:11;4.00;;;1.73;;
49015;SDS011;34830;44.064;12.566;2022-12-05T09:22:39;5.68;;;1.48;;
49015;SDS011;34830;44.064;12.566;2022-12-05T09:25:06;14.65;;;1.80;;
49015;SDS011;34830;44.064;12.566;2022-12-05T09:27:33;5.00;;;1.70;;
49015;SDS011;34830;44.064;12.566;2022-12-05T09:29:59;8.57;;;1.48;;
49015;SDS011;34830;44.064;12.566;2022-12-05T09:32:25;9.90;;;3.08;;
49015;SDS011;34830;44.064;12.566;2022-12-05T09:34:52;7.70;;;2.05;;
49015;SDS011;34830;44.064;12.566;2022-12-05T09:37:18;7.18;;;2.60;;
49015;SDS011;34830;44.064;12.566;2022-12-05T09:39:44;6.97;;;2.00;;
49015;SDS011;34830;44.064;12.566;2022-12-05T09:53:10;7.35;;;2.30;;
49015;SDS011;34830;44.064;12.566;2022-12-05T10:01:19;6.43;;;2.15;;
49015;SDS011;34830;44.064;12.566;2022-12-05T10:06:33;6.90;;;2.20;;
49015;SDS011;34830;44.064;12.566;2022-12-05T10:11:42;9.15;;;2.22;;
49015;SDS011;34830;44.064;12.566;2022-12-05T10:17:34;8.82;;;2.78;;
49015;SDS011;34830;44.064;12.566;2022-12-05T10:20:09;8.73;;;2.50;;
49015;SDS011;34830;44.064;12.566;2022-12-05T10:23:25;7.22;;;2.30;;
49015;SDS011;34830;44.064;12.566;2022-12-05T10:25:34;8.63;;;2.13;;
49015;SDS011;34830;44.064;12.566;2022-12-05T10:28:04;8.60;;;2.88;;
49015;SDS011;34830;44.064;12.566;2022-12-05T10:30:36;7.05;;;1.73;;
49015;SDS011;34830;44.064;12.566;2022-12-05T10:33:17;7.32;;;1.95;;
49015;SDS011;34830;44.064;12.566;2022-12-05T10:35:46;10.32;;;1.95;;
49015;SDS011;34830;44.064;12.566;2022-12-05T10:38:22;6.30;;;1.83;;
49015;SDS011;34830;44.064;12.566;2022-12-05T10:40:51;5.32;;;1.73;;
49015;SDS011;34830;44.064;12.566;2022-12-05T10:43:22;5.50;;;1.88;;
49015;SDS011;34830;44.064;12.566;2022-12-05T10:45:50;8.05;;;1.40;;
49015;SDS011;34830;44.064;12.566;2022-12-05T10:48:17;7.43;;;1.90;;
49015;SDS011;34830;44.064;12.566;2022-12-05T10:50:45;5.05;;;1.60;;
49015;SDS011;34830;44.064;12.566;2022-12-05T10:53:20;4.38;;;1.35;;
49015;SDS011;34830;44.064;12.566;2022-12-05T10:55:49;3.95;;;1.25;;
49015;SDS011;34830;44.064;12.566;2022-12-05T10:58:17;3.50;;;1.20;;
49015;SDS011;34830;44.064;12.566;2022-12-05T11:00:49;4.40;;;1.23;;
49015;SDS011;34830;44.064;12.566;2022-12-05T11:03:29;9.23;;;1.67;;
49015;SDS011;34830;44.064;12.566;2022-12-05T11:06:01;5.93;;;1.45;;
49015;SDS011;34830;44.064;12.566;2022-12-05T11:08:39;3.22;;;1.20;;
49015;SDS011;34830;44.064;12.566;2022-12-05T11:13:55;9.32;;;1.27;;
49015;SDS011;34830;44.064;12.566;2022-12-05T11:16:28;6.90;;;1.55;;
49015;SDS011;34830;44.064;12.566;2022-12-05T11:22:02;5.60;;;1.65;;
49015;SDS011;34830;44.064;12.566;2022-12-05T11:29:41;9.05;;;1.60;;
49015;SDS011;34830;44.064;12.566;2022-12-05T11:32:18;5.57;;;1.63;;
49015;SDS011;34830;44.064;12.566;2022-12-05T11:34:49;7.13;;;1.70;;
49015;SDS011;34830;44.064;12.566;2022-12-05T11:37:19;6.00;;;1.60;;
49015;SDS011;34830;44.064;12.566;2022-12-05T11:39:48;6.30;;;1.67;;
49015;SDS011;34830;44.064;12.566;2022-12-05T11:47:38;4.18;;;1.33;;
49015;SDS011;34830;44.064;12.566;2022-12-05T11:58:38;9.65;;;2.33;;
49015;SDS011;34830;44.064;12.566;2022-12-05T12:04:11;8.60;;;1.05;;
49015;SDS011;34830;44.064;12.566;2022-12-05T12:14:51;6.63;;;1.80;;
49015;SDS011;34830;44.064;12.566;2022-12-05T12:17:42;10.68;;;3.28;;
49015;SDS011;34830;44.064;12.566;2022-12-05T13:01:01;14.35;;;2.60;;
49015;SDS011;34830;44.064;12.566;2022-12-05T13:06:53;13.88;;;2.85;;
49015;SDS011;34830;44.064;12.566;2022-12-05T13:09:29;11.43;;;3.22;;
49015;SDS011;34830;44.064;12.566;2022-12-05T13:12:00;11.82;;;2.55;;
49015;SDS011;34830;44.064;12.566;2022-12-05T13:14:29;8.57;;;3.37;;
49015;SDS011;34830;44.064;12.566;2022-12-05T13:16:57;8.30;;;2.30;;
49015;SDS011;34830;44.064;12.566;2022-12-05T13:19:30;8.68;;;2.63;;
49015;SDS011;34830;44.064;12.566;2022-12-05T13:22:03;6.57;;;2.65;;
49015;SDS011;34830;44.064;12.566;2022-12-05T13:24:31;8.75;;;2.55;;
49015;SDS011;34830;44.064;12.566;2022-12-05T13:26:58;15.75;;;3.03;;
49015;SDS011;34830;44.064;12.566;2022-12-05T13:29:33;9.32;;;2.30;;
49015;SDS011;34830;44.064;12.566;2022-12-05T13:32:22;9.07;;;2.95;;
49015;SDS011;34830;44.064;12.566;2022-12-05T13:34:50;12.05;;;2.45;;
49015;SDS011;34830;44.064;12.566;2022-12-05T13:37:27;13.10;;;2.60;;
49015;SDS011;34830;44.064;12.566;2022-12-05T13:40:35;7.72;;;2.85;;
49015;SDS011;34830;44.064;12.566;2022-12-05T13:43:20;17.63;;;4.65;;
49015;SDS011;34830;44.064;12.566;2022-12-05T13:48:32;6.15;;;1.77;;
49015;SDS011;34830;44.064;12.566;2022-12-05T14:15:21;10.10;;;3.25;;
49015;SDS011;34830;44.064;12.566;2022-12-05T14:17:39;14.52;;;6.05;;
49015;SDS011;34830;44.064;12.566;2022-12-05T14:33:26;6.55;;;1.90;;
49015;SDS011;34830;44.064;12.566;2022-12-05T14:35:52;4.32;;;1.35;;
49015;SDS011;34830;44.064;12.566;2022-12-05T14:38:31;5.03;;;2.15;;
49015;SDS011;34830;44.064;12.566;2022-12-05T14:43:37;6.53;;;1.20;;
49015;SDS011;34830;44.064;12.566;2022-12-05T14:46:05;4.53;;;0.70;;
49015;SDS011;34830;44.064;12.566;2022-12-05T14:48:39;3.88;;;0.73;;
49015;SDS011;34830;44.064;12.566;2022-12-05T14:54:05;3.57;;;0.80;;
49015;SDS011;34830;44.064;12.566;2022-12-05T14:56:33;5.40;;;1.48;;
49015;SDS011;34830;44.064;12.566;2022-12-05T15:01:52;2.70;;;0.70;;
49015;SDS011;34830;44.064;12.566;2022-12-05T15:07:09;3.08;;;1.05;;
49015;SDS011;34830;44.064;12.566;2022-12-05T15:09:57;4.45;;;1.70;;
49015;SDS011;34830;44.064;12.566;2022-12-05T15:12:25;5.65;;;1.77;;
49015;SDS011;34830;44.064;12.566;2022-12-05T15:15:56;8.90;;;4.57;;
49015;SDS011;34830;44.064;12.566;2022-12-05T15:17:52;11.63;;;3.83;;
49015;SDS011;34830;44.064;12.566;2022-12-05T15:20:29;6.40;;;2.97;;
49015;SDS011;34830;44.064;12.566;2022-12-05T15:22:59;3.90;;;1.67;;
49015;SDS011;34830;44.064;12.566;2022-12-05T15:25:26;3.17;;;0.90;;
49015;SDS011;34830;44.064;12.566;2022-12-05T15:27:59;6.75;;;1.25;;
49015;SDS011;34830;44.064;12.566;2022-12-05T15:30:31;4.55;;;1.55;;
49015;SDS011;34830;44.064;12.566;2022-12-05T15:33:00;4.90;;;1.58;;
49015;SDS011;34830;44.064;12.566;2022-12-05T15:35:27;3.53;;;1.25;;
49015;SDS011;34830;44.064;12.566;2022-12-05T15:37:57;4.68;;;1.30;;
49015;SDS011;34830;44.064;12.566;2022-12-05T15:40:31;5.13;;;1.10;;
49015;SDS011;34830;44.064;12.566;2022-12-05T15:43:02;4.00;;;1.30;;
49015;SDS011;34830;44.064;12.566;2022-12-05T15:46:14;4.57;;;1.50;;
49015;SDS011;34830;44.064;12.566;2022-12-05T15:48:49;8.70;;;3.30;;
49015;SDS011;34830;44.064;12.566;2022-12-05T15:51:16;7.40;;;1.95;;
49015;SDS011;34830;44.064;12.566;2022-12-05T15:53:50;4.93;;;1.55;;
49015;SDS011;34830;44.064;12.566;2022-12-05T15:57:00;6.75;;;1.90;;
49015;SDS011;34830;44.064;12.566;2022-12-05T16:01:59;6.40;;;1.77;;
49015;SDS011;34830;44.064;12.566;2022-12-05T16:04:31;8.05;;;2.15;;
49015;SDS011;34830;44.064;12.566;2022-12-05T16:07:02;5.50;;;2.10;;
49015;SDS011;34830;44.064;12.566;2022-12-05T16:09:31;10.40;;;2.27;;
49015;SDS011;34830;44.064;12.566;2022-12-05T16:11:59;7.05;;;1.92;;
49015;SDS011;34830;44.064;12.566;2022-12-05T16:14:45;6.03;;;2.13;;
49015;SDS011;34830;44.064;12.566;2022-12-05T16:17:15;6.88;;;2.08;;
49015;SDS011;34830;44.064;12.566;2022-12-05T16:19:42;5.10;;;2.05;;
49015;SDS011;34830;44.064;12.566;2022-12-05T16:22:15;7.07;;;2.70;;
49015;SDS011;34830;44.064;12.566;2022-12-05T16:25:32;5.32;;;2.42;;
49015;SDS011;34830;44.064;12.566;2022-12-05T16:27:53;6.03;;;2.22;;
49015;SDS011;34830;44.064;12.566;2022-12-05T16:32:56;7.93;;;3.28;;
49015;SDS011;34830;44.064;12.566;2022-12-05T16:35:27;11.75;;;2.92;;
49015;SDS011;34830;44.064;12.566;2022-12-05T16:38:06;7.05;;;2.63;;
49015;SDS011;34830;44.064;12.566;2022-12-05T16:40:40;10.32;;;2.63;;
49015;SDS011;34830;44.064;12.566;2022-12-05T16:45:48;8.63;;;3.13;;
49015;SDS011;34830;44.064;12.566;2022-12-05T16:48:19;9.32;;;3.20;;
49015;SDS011;34830;44.064;12.566;2022-12-05T16:50:53;6.80;;;3.42;;
49015;SDS011;34830;44.064;12.566;2022-12-05T16:53:40;8.05;;;3.22;;
49015;SDS011;34830;44.064;12.566;2022-12-05T16:56:29;12.50;;;3.30;;
49015;SDS011;34830;44.064;12.566;2022-12-05T16:58:55;10.80;;;3.33;;
49015;SDS011;34830;44.064;12.566;2022-12-05T17:01:22;9.43;;;3.55;;
49015;SDS011;34830;44.064;12.566;2022-12-05T17:03:50;7.70;;;3.35;;
49015;SDS011;34830;44.064;12.566;2022-12-05T17:06:18;7.00;;;2.92;;
49015;SDS011;34830;44.064;12.566;2022-12-05T17:08:46;9.85;;;4.20;;
49015;SDS011;34830;44.064;12.566;2022-12-05T17:13:57;12.43;;;4.00;;
49015;SDS011;34830;44.064;12.566;2022-12-05T17:16:24;10.30;;;3.88;;
49015;SDS011;34830;44.064;12.566;2022-12-05T17:18:51;11.05;;;4.22;;
49015;SDS011;34830;44.064;12.566;2022-12-05T17:21:18;13.00;;;5.85;;
49015;SDS011;34830;44.064;12.566;2022-12-05T17:23:46;12.10;;;4.72;;
49015;SDS011;34830;44.064;12.566;2022-12-05T17:26:13;10.65;;;4.82;;
49015;SDS011;34830;44.064;12.566;2022-12-05T17:28:41;10.57;;;5.38;;
49015;SDS011;34830;44.064;12.566;2022-12-05T17:31:11;19.63;;;7.85;;
49015;SDS011;34830;44.064;12.566;2022-12-05T17:33:39;21.60;;;8.35;;
49015;SDS011;34830;44.064;12.566;2022-12-05T17:36:05;15.13;;;7.18;;
49015;SDS011;34830;44.064;12.566;2022-12-05T17:38:31;16.67;;;6.88;;
49015;SDS011;34830;44.064;12.566;2022-12-05T17:40:57;15.80;;;6.75;;
49015;SDS011;34830;44.064;12.566;2022-12-05T17:43:23;12.82;;;6.25;;
49015;SDS011;34830;44.064;12.566;2022-12-05T17:45:49;15.52;;;6.88;;
49015;SDS011;34830;44.064;12.566;2022-12-05T17:48:15;18.20;;;7.15;;
49015;SDS011;34830;44.064;12.566;2022-12-05T17:50:43;17.20;;;6.15;;
49015;SDS011;34830;44.064;12.566;2022-12-05T17:53:16;15.75;;;6.22;;
49015;SDS011;34830;44.064;12.566;2022-12-05T17:55:45;16.20;;;5.15;;
49015;SDS011;34830;44.064;12.566;2022-12-05T17:58:15;14.45;;;6.00;;
49015;SDS011;34830;44.064;12.566;2022-12-05T18:00:41;10.80;;;4.40;;
49015;SDS011;34830;44.064;12.566;2022-12-05T18:03:12;8.07;;;4.22;;
49015;SDS011;34830;44.064;12.566;2022-12-05T18:05:39;12.27;;;4.10;;
49015;SDS011;34830;44.064;12.566;2022-12-05T18:08:05;14.70;;;4.15;;